createdAt,value
2023-05-19T00:01:48.643Z,71.04
2023-05-19T00:04:15.800Z,71.09
2023-05-19T00:06:43.030Z,71.76
2023-05-19T00:09:10.839Z,71.81
2023-05-19T00:11:40.345Z,72.27
2023-05-19T00:14:09.875Z,72.05
2023-05-19T00:16:39.544Z,72.02
2023-05-19T00:19:10.659Z,72.01
2023-05-19T00:21:38.888Z,72.40
2023-05-19T00:24:06.842Z,72.56
2023-05-19T00:26:34.150Z,72.85
2023-05-19T00:29:01.348Z,73.12
2023-05-19T00:31:28.327Z,73.32
2023-05-19T00:33:55.166Z,73.47
2023-05-19T00:36:22.043Z,73.80
2023-05-19T00:38:49.030Z,73.86
2023-05-19T00:41:15.835Z,74.37
2023-05-19T00:43:42.869Z,74.58
2023-05-19T00:46:11.255Z,74.74
2023-05-19T00:48:38.136Z,75.17
2023-05-19T00:51:06.903Z,75.26
2023-05-19T00:53:35.077Z,75.72
2023-05-19T00:56:03.495Z,75.50
2023-05-19T00:58:34.297Z,75.95
2023-05-19T01:01:05.306Z,75.73
2023-05-19T01:03:37.400Z,75.32
2023-05-19T01:06:08.051Z,75.78
2023-05-19T01:08:37.656Z,76.16
2023-05-19T01:11:08.796Z,76.47
2023-05-19T01:13:36.815Z,76.33
2023-05-19T01:16:40.670Z,76.48
2023-05-19T01:19:41.813Z,76.28
2023-05-19T01:22:47.757Z,76.00
2023-05-19T01:25:45.244Z,75.85
2023-05-19T01:28:39.746Z,75.96
2023-05-19T01:31:07.665Z,75.31
2023-05-19T01:33:35.158Z,75.99
2023-05-19T01:36:03.864Z,75.69
2023-05-19T01:38:34.018Z,75.62
2023-05-19T01:41:03.076Z,75.60
2023-05-19T01:43:30.083Z,75.61
2023-05-19T01:45:59.208Z,74.89
2023-05-19T01:48:27.251Z,74.92
2023-05-19T01:50:57.508Z,75.04
2023-05-19T01:53:25.178Z,75.16
2023-05-19T01:55:57.645Z,75.18
2023-05-19T01:58:46.422Z,74.84
2023-05-19T02:01:48.774Z,74.98
2023-05-19T02:04:41.508Z,75.10
2023-05-19T02:07:11.897Z,75.09
2023-05-19T02:09:44.905Z,75.25
2023-05-19T02:12:29.246Z,74.96
2023-05-19T02:15:07.479Z,75.22
2023-05-19T02:17:54.913Z,75.46
2023-05-19T02:20:22.620Z,76.12
2023-05-19T02:22:49.803Z,75.80
2023-05-19T02:25:16.955Z,75.99
2023-05-19T02:27:43.866Z,76.62
2023-05-19T02:30:12.079Z,76.62
2023-05-19T02:32:40.005Z,77.35
2023-05-19T02:35:10.000Z,77.50
2023-05-19T02:37:36.793Z,77.46
2023-05-19T02:40:11.908Z,77.23
2023-05-19T02:42:41.963Z,77.54
2023-05-19T02:45:13.098Z,77.24
2023-05-19T02:47:43.339Z,77.64
2023-05-19T02:50:10.533Z,77.05
2023-05-19T02:52:37.325Z,77.18
2023-05-19T02:55:04.540Z,77.39
2023-05-19T02:57:33.613Z,77.82
2023-05-19T03:00:01.568Z,77.62
2023-05-19T03:02:29.872Z,78.03
2023-05-19T03:04:56.944Z,78.39
2023-05-19T03:07:26.717Z,78.53
2023-05-19T03:09:53.874Z,78.52
2023-05-19T03:12:22.639Z,78.47
2023-05-19T03:14:50.181Z,78.36
2023-05-19T03:17:17.501Z,78.75
2023-05-19T03:19:45.460Z,78.83
2023-05-19T03:22:14.574Z,78.64
2023-05-19T03:24:42.294Z,78.48
2023-05-19T03:27:10.158Z,78.67
2023-05-19T03:29:39.934Z,78.83
2023-05-19T03:32:09.211Z,78.35
2023-05-19T03:34:36.038Z,78.32
2023-05-19T03:37:02.828Z,78.29
2023-05-19T03:39:29.702Z,78.76
2023-05-19T03:41:56.712Z,78.64
2023-05-19T03:47:09.744Z,78.73
2023-05-19T03:49:37.245Z,78.85
2023-05-19T03:52:05.271Z,78.69
2023-05-19T03:54:32.081Z,78.76
2023-05-19T03:56:59.382Z,78.42
2023-05-19T03:59:26.132Z,78.92
2023-05-19T04:01:53.521Z,78.62
2023-05-19T04:04:22.171Z,78.77
2023-05-19T04:06:49.243Z,78.41
2023-05-19T04:09:16.980Z,78.83
2023-05-19T04:11:43.852Z,78.60
2023-05-19T04:14:10.721Z,78.93
2023-05-19T04:16:38.062Z,78.86
2023-05-19T04:19:05.229Z,79.15
2023-05-19T04:21:32.009Z,79.29
2023-05-19T04:24:01.315Z,79.32
2023-05-19T04:26:30.945Z,79.45
2023-05-19T04:28:57.756Z,79.21
2023-05-19T04:31:27.182Z,79.29
2023-05-19T04:33:54.392Z,78.82
2023-05-19T04:36:22.147Z,78.65
2023-05-19T04:38:51.297Z,78.92
2023-05-19T04:41:18.816Z,79.59
2023-05-19T04:43:46.259Z,79.34
2023-05-19T04:46:14.171Z,79.03
2023-05-19T04:48:43.042Z,78.91
2023-05-19T04:51:10.555Z,78.87
2023-05-19T04:53:37.239Z,78.87
2023-05-19T04:56:05.357Z,78.26
2023-05-19T04:58:32.153Z,78.39
2023-05-19T05:00:58.836Z,78.35
2023-05-19T05:03:26.713Z,78.31
2023-05-19T05:05:53.861Z,77.79
2023-05-19T05:08:23.699Z,77.71
2023-05-19T05:10:52.258Z,77.98
2023-05-19T05:13:21.769Z,77.43
2023-05-19T05:15:49.262Z,76.44
2023-05-19T05:18:16.711Z,75.69
2023-05-19T05:20:45.121Z,76.75
2023-05-19T05:23:16.659Z,76.41
2023-05-19T05:25:44.577Z,75.43
2023-05-19T05:28:11.922Z,73.65
2023-05-19T05:30:38.697Z,72.60
2023-05-19T05:33:10.033Z,71.45
2023-05-19T05:35:37.234Z,72.59
2023-05-19T05:38:05.479Z,72.06
2023-05-19T05:40:34.276Z,71.75
2023-05-19T05:43:03.508Z,69.09
2023-05-19T05:45:31.159Z,68.14
2023-05-19T05:47:59.632Z,69.31
2023-05-19T05:50:28.544Z,66.87
2023-05-19T05:53:02.345Z,68.24
2023-05-19T05:55:55.850Z,66.96
2023-05-19T06:01:05.101Z,65.82
2023-05-19T06:03:45.873Z,64.70
2023-05-19T06:06:20.001Z,66.31
2023-05-19T06:08:46.556Z,66.48
2023-05-19T06:11:13.151Z,63.00
2023-05-19T06:13:41.394Z,62.86
2023-05-19T06:16:08.191Z,64.71
2023-05-19T06:18:34.813Z,63.53
2023-05-19T06:21:08.972Z,63.95
2023-05-19T06:23:36.001Z,62.95
2023-05-19T06:26:02.646Z,62.27
2023-05-19T06:28:29.167Z,63.28
2023-05-19T06:30:55.783Z,62.82
2023-05-19T06:33:22.318Z,63.17
2023-05-19T06:35:48.884Z,61.78
2023-05-19T06:38:15.453Z,62.29
2023-05-19T06:40:42.014Z,60.60
2023-05-19T06:43:08.568Z,61.72
2023-05-19T06:45:35.271Z,61.45
2023-05-19T06:48:02.082Z,57.72
2023-05-19T06:50:28.663Z,57.56
2023-05-19T06:52:55.221Z,57.78
2023-05-19T06:55:21.950Z,55.77
2023-05-19T06:57:48.610Z,56.17
2023-05-19T07:00:18.805Z,59.16
2023-05-19T07:02:46.625Z,56.26
2023-05-19T07:05:13.749Z,57.80
2023-05-19T07:07:40.499Z,56.83
2023-05-19T07:10:07.931Z,59.18
2023-05-19T07:12:34.614Z,58.59
2023-05-19T07:15:01.321Z,60.31
2023-05-19T07:17:28.084Z,59.20
2023-05-19T07:19:54.813Z,61.17
2023-05-19T07:22:22.444Z,58.32
2023-05-19T07:24:49.259Z,59.59
2023-05-19T07:27:16.057Z,57.28
2023-05-19T07:29:42.740Z,59.09
2023-05-19T07:32:09.597Z,57.41
2023-05-19T07:34:36.890Z,55.93
2023-05-19T07:37:03.735Z,57.40
2023-05-19T07:39:32.486Z,55.19
2023-05-19T07:41:59.501Z,53.95
2023-05-19T07:44:27.347Z,56.80
2023-05-19T07:46:54.699Z,56.62
2023-05-19T07:49:21.423Z,57.25
2023-05-19T07:51:48.126Z,57.71
2023-05-19T07:54:14.913Z,58.25
2023-05-19T07:56:41.650Z,55.86
2023-05-19T07:59:08.474Z,55.71
2023-05-19T08:01:35.240Z,55.74
2023-05-19T08:04:02.317Z,55.26
2023-05-19T08:06:32.169Z,52.48
2023-05-19T08:08:58.925Z,51.84
2023-05-19T08:11:26.130Z,54.02
2023-05-19T08:13:54.283Z,54.36
2023-05-19T08:16:21.547Z,55.93
2023-05-19T08:18:48.508Z,51.95
2023-05-19T08:21:15.143Z,51.88
2023-05-19T08:23:41.800Z,54.95
2023-05-19T08:26:09.640Z,53.19
2023-05-19T08:28:36.370Z,55.44
2023-05-19T08:31:04.245Z,55.53
2023-05-19T08:33:33.561Z,53.19
2023-05-19T08:36:00.370Z,52.83
2023-05-19T08:38:27.246Z,52.78
2023-05-19T08:40:54.782Z,51.01
2023-05-19T08:43:21.816Z,52.68
2023-05-19T08:45:48.617Z,52.85
2023-05-19T08:48:32.173Z,52.47
2023-05-19T09:01:17.280Z,48.65
2023-05-19T09:04:18.368Z,48.42
2023-05-19T09:06:52.623Z,48.45
2023-05-19T09:09:32.043Z,47.33
2023-05-19T09:12:16.214Z,45.62
2023-05-19T09:18:14.280Z,46.34
2023-05-19T09:20:42.840Z,44.54
2023-05-19T09:23:14.179Z,42.07
2023-05-19T09:25:51.120Z,43.85
2023-05-19T09:28:33.314Z,43.83
2023-05-19T09:31:08.497Z,43.23
2023-05-19T09:33:37.103Z,45.16
2023-05-19T09:36:06.280Z,43.96
2023-05-19T09:38:33.167Z,44.55
2023-05-19T09:41:00.944Z,42.84
2023-05-19T09:43:33.655Z,40.89
2023-05-19T09:46:04.488Z,40.61
2023-05-19T09:48:31.118Z,38.52
2023-05-19T09:50:58.325Z,39.48
2023-05-19T09:53:27.968Z,38.23
2023-05-19T09:55:58.121Z,40.41
2023-05-19T09:58:26.550Z,42.35
2023-05-19T10:00:57.242Z,42.92
2023-05-19T10:03:25.415Z,39.03
2023-05-19T10:05:53.555Z,39.69
2023-05-19T10:08:20.391Z,35.89
2023-05-19T10:10:47.924Z,38.14
2023-05-19T10:13:16.633Z,37.09
2023-05-19T10:15:57.433Z,38.51
2023-05-19T10:18:26.903Z,37.56
2023-05-19T10:20:54.948Z,40.49
2023-05-19T10:23:23.498Z,35.39
2023-05-19T10:25:54.943Z,37.34
2023-05-19T10:28:25.679Z,35.23
2023-05-19T10:30:56.717Z,37.41
2023-05-19T10:33:37.382Z,36.58
2023-05-19T10:36:46.109Z,35.84
2023-05-19T10:39:22.112Z,35.66
2023-05-19T10:42:01.113Z,37.17
2023-05-19T10:45:13.619Z,35.95
2023-05-19T10:47:44.393Z,33.77
2023-05-19T10:50:11.799Z,35.32
2023-05-19T10:52:40.026Z,34.31
2023-05-19T10:55:16.087Z,33.92
2023-05-19T10:57:54.263Z,33.39
2023-05-19T11:00:28.222Z,32.42
2023-05-19T11:03:12.029Z,33.95
2023-05-19T11:05:38.645Z,33.88
2023-05-19T11:08:08.254Z,32.60
2023-05-19T11:10:34.838Z,31.94
2023-05-19T11:13:01.574Z,31.75
2023-05-19T11:15:28.979Z,32.74
2023-05-19T11:17:56.024Z,32.20
2023-05-19T11:20:22.686Z,32.29
2023-05-19T11:23:11.271Z,32.23
2023-05-19T11:25:41.853Z,29.82
2023-05-19T11:28:10.476Z,29.99
2023-05-19T11:30:37.568Z,32.05
2023-05-19T11:33:05.270Z,30.46
2023-05-19T11:35:36.029Z,29.73
2023-05-19T11:38:03.646Z,30.66
2023-05-19T11:40:33.647Z,30.90
2023-05-19T11:43:01.959Z,33.13
2023-05-19T11:45:31.599Z,32.69
2023-05-19T11:48:02.701Z,31.51
2023-05-19T11:50:31.412Z,30.74
2023-05-19T11:53:00.252Z,29.69
2023-05-19T11:55:27.271Z,33.97
2023-05-19T11:58:05.592Z,31.48
2023-05-19T12:00:40.078Z,26.42
2023-05-19T12:03:07.751Z,27.67
2023-05-19T12:05:41.828Z,28.35
2023-05-19T12:08:09.847Z,29.30
2023-05-19T12:10:38.367Z,27.69
2023-05-19T12:13:08.307Z,31.07
2023-05-19T12:15:35.575Z,29.08
2023-05-19T12:18:03.254Z,27.15
2023-05-19T12:20:35.976Z,26.83
2023-05-19T12:23:03.845Z,28.39
2023-05-19T12:25:31.846Z,29.58
2023-05-19T12:28:00.382Z,27.56
2023-05-19T12:30:29.383Z,26.78
2023-05-19T12:32:58.278Z,27.32
2023-05-19T12:35:33.705Z,24.88
2023-05-19T12:38:09.497Z,26.98
2023-05-19T12:40:37.965Z,27.35
2023-05-19T12:43:05.583Z,27.02
2023-05-19T12:45:42.706Z,24.09
2023-05-19T12:48:12.809Z,27.15
2023-05-19T12:50:39.639Z,26.23
2023-05-19T12:53:10.714Z,27.00
2023-05-19T12:55:44.401Z,25.51
2023-05-19T12:58:12.795Z,27.84
2023-05-19T13:00:45.612Z,25.87
2023-05-19T13:03:20.454Z,27.18
2023-05-19T13:05:49.137Z,25.57
2023-05-19T13:08:18.280Z,26.50
2023-05-19T13:10:46.425Z,26.04
2023-05-19T13:13:13.485Z,26.56
2023-05-19T13:15:45.005Z,24.03
2023-05-19T13:18:13.794Z,26.60
2023-05-19T13:20:42.161Z,25.33
2023-05-19T13:23:11.037Z,24.50
2023-05-19T13:25:37.978Z,25.61
2023-05-19T13:28:05.999Z,27.22
2023-05-19T13:30:34.614Z,26.75
2023-05-19T13:33:02.204Z,27.06
2023-05-19T13:35:29.027Z,26.55
2023-05-19T13:37:55.760Z,27.74
2023-05-19T13:40:24.085Z,27.72
2023-05-19T13:42:51.029Z,27.99
2023-05-19T13:45:18.464Z,27.24
2023-05-19T13:47:45.108Z,27.33
2023-05-19T13:50:12.409Z,25.64
2023-05-19T13:52:39.211Z,25.15
2023-05-19T13:55:07.388Z,27.97
2023-05-19T13:57:34.224Z,26.63
2023-05-19T14:00:03.843Z,24.60
2023-05-19T14:02:31.068Z,26.92
2023-05-19T14:04:57.961Z,25.89
2023-05-19T14:07:25.756Z,25.52
2023-05-19T14:09:52.801Z,23.50
2023-05-19T14:12:23.167Z,25.19
2023-05-19T14:14:52.299Z,26.54
2023-05-19T14:17:18.951Z,26.82
2023-05-19T14:19:45.564Z,26.89
2023-05-19T14:22:13.543Z,25.52
2023-05-19T14:24:40.195Z,25.69
2023-05-19T14:27:06.814Z,26.81
2023-05-19T14:29:34.083Z,26.04
2023-05-19T14:32:00.926Z,26.89
2023-05-19T14:34:27.697Z,26.63
2023-05-19T14:36:54.298Z,26.15
2023-05-19T14:39:21.177Z,24.94
2023-05-19T14:41:49.518Z,27.38
2023-05-19T14:44:16.160Z,24.70
2023-05-19T14:46:42.916Z,25.89
2023-05-19T14:49:09.612Z,26.01
2023-05-19T14:51:36.307Z,26.74
2023-05-19T14:54:02.990Z,25.71
2023-05-19T14:56:29.740Z,26.51
2023-05-19T14:58:56.639Z,28.44
2023-05-19T15:01:23.433Z,27.76
2023-05-19T15:03:50.267Z,26.28
2023-05-19T15:06:16.942Z,28.37
2023-05-19T15:08:43.657Z,27.78
2023-05-19T15:11:10.263Z,27.93
2023-05-19T15:13:36.910Z,27.62
2023-05-19T15:16:16.297Z,27.17
2023-05-19T15:18:44.653Z,28.64
2023-05-19T15:21:11.600Z,27.99
2023-05-19T15:23:38.513Z,28.37
2023-05-19T15:26:05.299Z,27.30
2023-05-19T15:28:32.468Z,26.90
2023-05-19T15:30:59.251Z,28.68
2023-05-19T15:33:25.991Z,26.87
2023-05-19T15:35:52.704Z,26.90
2023-05-19T15:38:19.793Z,26.78
2023-05-19T15:40:46.987Z,24.74
2023-05-19T15:43:14.311Z,25.17
2023-05-19T15:45:41.068Z,25.96
2023-05-19T15:48:11.760Z,25.46
2023-05-19T15:50:39.786Z,28.00
2023-05-19T15:53:08.642Z,27.76
2023-05-19T15:55:35.401Z,26.04
2023-05-19T15:58:02.168Z,27.04
2023-05-19T16:00:29.299Z,26.80
2023-05-19T16:02:56.260Z,26.71
2023-05-19T16:05:24.380Z,26.13
2023-05-19T16:07:51.819Z,27.21
2023-05-19T16:10:19.550Z,27.45
2023-05-19T16:12:49.597Z,25.79
2023-05-19T16:15:16.367Z,26.63
2023-05-19T16:17:42.970Z,25.55
2023-05-19T16:20:10.364Z,27.33
2023-05-19T16:22:37.147Z,26.40
2023-05-19T16:25:04.667Z,26.61
2023-05-19T16:27:31.793Z,26.76
2023-05-19T16:29:58.920Z,27.58
2023-05-19T16:32:26.014Z,29.27
2023-05-19T16:34:53.282Z,30.13
2023-05-19T16:37:20.401Z,30.32
2023-05-19T16:39:48.776Z,27.88
2023-05-19T16:42:15.593Z,27.64
2023-05-19T16:44:42.996Z,28.39
2023-05-19T16:47:10.442Z,29.84
2023-05-19T16:49:38.064Z,28.75
2023-05-19T16:52:05.275Z,28.24
2023-05-19T16:54:31.996Z,29.86
2023-05-19T16:56:58.724Z,28.55
2023-05-19T16:59:25.484Z,28.89
2023-05-19T17:01:52.663Z,28.45
2023-05-19T17:04:19.584Z,30.42
2023-05-19T17:06:46.811Z,31.14
2023-05-19T17:09:13.528Z,31.98
2023-05-19T17:11:43.773Z,32.49
2023-05-19T17:14:10.596Z,32.77
2023-05-19T17:16:38.100Z,33.02
2023-05-19T17:19:04.897Z,32.83
2023-05-19T17:21:32.076Z,33.41
2023-05-19T17:23:58.727Z,34.22
2023-05-19T17:26:26.931Z,34.62
2023-05-19T17:28:54.165Z,33.60
2023-05-19T17:31:21.386Z,33.81
2023-05-19T17:33:48.289Z,34.61
2023-05-19T17:36:22.985Z,35.33
2023-05-19T17:38:49.868Z,37.67
2023-05-19T17:41:18.089Z,36.66
2023-05-19T17:43:46.585Z,35.83
2023-05-19T17:46:13.727Z,36.31
2023-05-19T17:48:40.497Z,36.25
2023-05-19T17:51:07.642Z,37.85
2023-05-19T17:53:34.969Z,37.28
2023-05-19T17:56:03.870Z,36.63
2023-05-19T17:58:30.871Z,37.03
2023-05-19T18:00:58.088Z,38.13
2023-05-19T18:03:25.271Z,38.09
2023-05-19T18:05:52.397Z,38.09
2023-05-19T18:08:19.441Z,38.38
2023-05-19T18:10:46.462Z,38.43
2023-05-19T18:13:16.343Z,37.46
2023-05-19T18:15:43.011Z,37.75
2023-05-19T18:18:11.193Z,38.70
2023-05-19T18:20:39.564Z,38.50
2023-05-19T18:23:06.255Z,39.44
2023-05-19T18:25:33.660Z,39.31
2023-05-19T18:28:00.447Z,39.88
2023-05-19T18:30:27.242Z,40.15
2023-05-19T18:32:54.115Z,39.56
2023-05-19T18:35:23.309Z,39.62
2023-05-19T18:37:50.130Z,40.60
2023-05-19T18:40:16.942Z,40.70
2023-05-19T18:42:43.642Z,41.59
2023-05-19T18:45:10.547Z,40.71
2023-05-19T18:47:38.352Z,43.05
2023-05-19T18:50:06.034Z,41.40
2023-05-19T18:52:33.072Z,40.46
2023-05-19T18:55:01.359Z,40.79
2023-05-19T18:57:28.181Z,40.84
2023-05-19T18:59:54.868Z,40.05
2023-05-19T19:02:22.753Z,40.68
2023-05-19T19:04:49.594Z,38.92
2023-05-19T19:07:16.387Z,39.05
2023-05-19T19:09:43.997Z,39.74
2023-05-19T19:12:11.249Z,40.36
2023-05-19T19:14:38.685Z,40.97
2023-05-19T19:17:05.797Z,41.72
2023-05-19T19:19:32.653Z,41.06
2023-05-19T19:21:59.721Z,41.25
2023-05-19T19:24:28.635Z,41.40
2023-05-19T19:26:55.394Z,41.78
2023-05-19T19:29:24.595Z,41.96
2023-05-19T19:31:51.443Z,42.53
2023-05-19T19:34:20.016Z,41.58
2023-05-19T19:36:48.012Z,42.05
2023-05-19T19:39:14.813Z,42.73
2023-05-19T19:41:41.599Z,42.99
2023-05-19T19:44:08.410Z,43.03
2023-05-19T19:46:35.714Z,42.29
2023-05-19T19:49:02.503Z,43.47
2023-05-19T19:51:31.953Z,44.19
2023-05-19T19:53:59.258Z,44.94
2023-05-19T19:56:28.333Z,45.21
2023-05-19T19:58:57.547Z,44.88
2023-05-19T20:01:27.966Z,44.96
2023-05-19T20:03:56.125Z,44.52
2023-05-19T20:06:23.712Z,44.77
2023-05-19T20:08:50.648Z,44.14
2023-05-19T20:11:19.974Z,44.42
2023-05-19T20:13:47.781Z,44.47
2023-05-19T20:16:14.560Z,44.04
2023-05-19T20:18:41.559Z,44.81
2023-05-19T20:21:08.445Z,45.10
2023-05-19T20:23:35.469Z,45.75
2023-05-19T20:26:11.143Z,45.99
2023-05-19T20:28:41.426Z,46.61
2023-05-19T20:31:08.615Z,46.41
2023-05-19T20:33:35.911Z,46.45
2023-05-19T20:36:02.794Z,46.87
2023-05-19T20:38:30.060Z,47.25
2023-05-19T20:40:57.665Z,47.42
2023-05-19T20:43:24.606Z,47.31
2023-05-19T20:45:51.621Z,47.85
2023-05-19T20:48:18.377Z,48.07
2023-05-19T20:50:45.088Z,48.73
2023-05-19T20:53:11.832Z,48.02
2023-05-19T20:55:39.269Z,48.50
2023-05-19T20:58:06.199Z,49.37
2023-05-19T21:00:33.370Z,50.68
2023-05-19T21:03:01.034Z,50.97
2023-05-19T21:05:29.576Z,50.87
2023-05-19T21:07:56.506Z,51.92
2023-05-19T21:10:23.302Z,51.86
2023-05-19T21:12:49.969Z,52.52
2023-05-19T21:15:16.825Z,52.10
2023-05-19T21:17:43.624Z,53.00
2023-05-19T21:20:10.720Z,54.00
2023-05-19T21:22:37.320Z,54.26
2023-05-19T21:25:04.227Z,52.72
2023-05-19T21:27:32.955Z,52.63
2023-05-19T21:30:00.220Z,53.17
2023-05-19T21:32:27.436Z,53.24
2023-05-19T21:34:54.006Z,51.92
2023-05-19T21:37:21.803Z,50.94
2023-05-19T21:39:48.950Z,51.03
2023-05-19T21:42:15.633Z,50.63
2023-05-19T21:44:42.279Z,50.64
2023-05-19T21:47:08.853Z,50.85
2023-05-19T21:49:35.633Z,50.93
2023-05-19T21:52:02.205Z,51.03
2023-05-19T21:54:28.790Z,51.58
2023-05-19T21:56:55.368Z,51.90
2023-05-19T21:59:24.792Z,52.09
2023-05-19T22:01:51.497Z,53.41
2023-05-19T22:04:18.979Z,53.22
2023-05-19T22:06:45.739Z,53.21
2023-05-19T22:09:12.934Z,53.20
2023-05-19T22:11:39.795Z,53.85
2023-05-19T22:14:06.372Z,54.14
2023-05-19T22:16:33.029Z,54.67
2023-05-19T22:19:00.213Z,55.28
2023-05-19T22:21:26.878Z,56.21
2023-05-19T22:23:53.433Z,56.62
2023-05-19T22:26:19.978Z,56.75
2023-05-19T22:28:46.438Z,56.68
2023-05-19T22:31:13.037Z,56.30
2023-05-19T22:33:39.584Z,56.79
2023-05-19T22:36:06.496Z,57.25
2023-05-19T22:38:33.189Z,57.46
2023-05-19T22:40:59.837Z,58.35
2023-05-19T22:43:26.407Z,58.62
2023-05-19T22:45:52.925Z,58.56
2023-05-19T22:48:19.484Z,58.61
2023-05-19T22:50:46.216Z,58.90
2023-05-19T22:53:12.693Z,59.07
2023-05-19T22:55:39.271Z,59.65
2023-05-19T22:58:06.511Z,60.31
2023-05-19T23:00:33.153Z,61.24
2023-05-19T23:02:59.777Z,61.43
2023-05-19T23:05:26.404Z,61.86
2023-05-19T23:07:53.013Z,62.24
2023-05-19T23:10:19.688Z,62.20
2023-05-19T23:12:46.421Z,61.55
2023-05-19T23:15:12.966Z,62.14
2023-05-19T23:17:39.543Z,61.31
2023-05-19T23:20:06.598Z,61.43
2023-05-19T23:22:33.156Z,61.56
2023-05-19T23:25:01.968Z,62.04
2023-05-19T23:27:28.575Z,62.30
2023-05-19T23:29:55.048Z,62.29
2023-05-19T23:32:21.607Z,61.99
2023-05-19T23:34:48.856Z,62.87
2023-05-19T23:37:15.436Z,62.46
2023-05-19T23:39:42.009Z,62.08
2023-05-19T23:42:08.830Z,62.28
2023-05-19T23:44:35.590Z,62.29
2023-05-19T23:47:02.094Z,62.03
2023-05-19T23:49:28.731Z,62.58
2023-05-19T23:51:55.272Z,62.33
2023-05-19T23:54:21.859Z,63.16
2023-05-19T23:56:48.338Z,63.67
2023-05-19T23:59:14.902Z,63.82
